AirNav   Air Wisconsin Up To $57,000 Bonus
 
 1253 users online  

SC01 Ashley Field Airport
Honea Path, South Carolina, USA

GOING TO HONEA PATH?


FAA INFORMATION EFFECTIVE 05 DECEMBER 2019

Location

FAA Identifier: SC01
Lat/Long: 34-26-47.0000N 082-21-52.0000W
34-26.783333N 082-21.866667W
34.4463889,-82.3644444
(estimated)
Elevation: 777 ft. / 237 m (estimated)
From city: 1 mile SE of HONEA PATH, SC
Time zone: UTC -5 (UTC -4 during Daylight Saving Time)
Zip code: 29654

Airport Operations

Airport use: Private use. Permission required prior to landing
Activation date: 10/2014
Control tower: no
ARTCC: ATLANTA CENTER
FSS: ANDERSON FLIGHT SERVICE STATION
Attendance: UNATTND
Wind indicator: yes
Segmented circle: no

Airport Communications

WX ASOS at GRD (16 nm SE): 121.125 (864-388-9115)
WX ASOS at AND (17 nm W): 120.675 (864-226-9522)
WX AWOS-3 at GYH (19 nm N): 127.325 (864-277-5674)

Nearby radio navigation aids

VOR radial/distance  VOR name  Freq  Var
GRDr319/15.7GREENWOOD VORTAC115.5001W
ELWr086/20.9ELECTRIC CITY VORTAC108.6000E

 
NDB name  Hdg/Dist  Freq  Var  ID
CORONACA317/17.923907WGIW --. .. .--
FAIRMONT219/33.124805WFRT ..-. .-. -
ENOREE290/37.027807WEOE . --- .
UNION COUNTY254/38.432606WUOT ..- --- -

Airport Services

Runway Information

Runway 13/31

Dimensions: 3000 x 125 ft. / 914 x 38 m
Surface: turf, in good condition
Runway edge lights: non-standard
NSTD LOW INTENSITY LIGHTING SYSTEM - NOT COMMERCIAL GRADE.
RUNWAY 13  RUNWAY 31
Traffic pattern: leftleft

Runway 18/36

Dimensions: 2400 x 125 ft. / 732 x 38 m
Surface: turf, in good condition
Runway edge lights: non-standard
NSTD LOW INTENSITY LIGHTING SYSTEM - NOT COMMERCIAL GRADE.
RUNWAY 18  RUNWAY 36
Traffic pattern: leftleft

Airport Ownership and Management from official FAA records

Ownership: Privately-owned
Owner: LINDA A. BOLING
PO BOX 145
WARE SHOALS, SC 29692
Phone 864-861-2183
Manager: HONEA PATH FLYING CLUB
8577 HWY. 252
HONEA PATH, SC 29654
Phone 864-369-9386

Airport Operational Statistics

Aircraft based on the field: 11
Single engine airplanes: 11
    

Additional Remarks

FOR CD CTC ATLANTA ARTCC AT 770-210-7692.

Instrument Procedures

There are no published instrument procedures at SC01.

Some nearby airports with instrument procedures:

KGRD - Greenwood County Airport (16 nm SE)
KAND - Anderson Regional Airport (17 nm W)
KGYH - Donaldson Field Airport (19 nm N)
KLUX - Laurens County Airport (21 nm E)
KGMU - Greenville Downtown Airport (24 nm N)
 
Loc | Ops | Rwys | IFR | FBO | Links
Com | Nav | Svcs | Stats | Notes
Aerial photo
No photo
 
Airport distance calculator
Flying to Ashley Field Airport? Find the distance to fly.

From to SC01

Sunrise and sunset
Times for 12-Dec-2019
 Local
(UTC-5)
 Zulu
(UTC)
Morning civil twilight07:0012:00
Sunrise07:2812:28
Sunset17:1922:19
Evening civil twilight17:4722:47

Current date and time
Zulu (UTC)  12-Dec-2019 20:04:56
Local (UTC-5)  12-Dec-2019 15:04:56
 
METAR
KGRD 
16nm SE 
121956Z AUTO 05009KT 10SM CLR 09/M03 A3048 RMK AO2 SLP325 T00941033 $
KAND 
18nm W 
121956Z AUTO 09011KT 10SM CLR 10/M04 A3046 RMK AO2 SLP316 T01001044
KGYH 
19nm N 
121947Z 05013KT 10SM CLR 09/M05 A3047
KLUX 
21nm E 
121955Z AUTO 10010KT 10SM CLR 09/M04 A3049 RMK AO2
KGMU 
24nm N 
121953Z 05011KT 10SM CLR 09/M03 A3048 RMK AO2 SLP327 T00941033
KLQK 
27nm NW 
121955Z AUTO 07005KT 10SM CLR 09/M03 A3047 RMK AO2 T00931035
KGSP 
28nm N 
121953Z 03008KT 10SM CLR A3049 RMK AO2 SLPNO $
KCEU 
29nm NW 
121954Z AUTO 07009KT 10SM CLR 09/M04 A3047 RMK AO2 SLP321 T00891044
TAF
KAND 
18nm W 
121737Z 1218/1318 06011KT P6SM FEW250 FM130100 06010KT P6SM VCSH OVC035 PROB30 1303/1305 4SM -RA OVC025 FM130500 05011KT 6SM -RA OVC015 FM130800 04008KT 4SM RA OVC006
NOTAMs
Click for the latest NOTAMs
NOTAMs are issued by the DoD/FAA and will open in a separate window not controlled by AirNav.

 

 
 

Would you like to see your business listed on this page?

 If your business provides an interesting product or service to pilots, flight crews, aircraft, or users of the Ashley Field Airport, you should consider listing it here.  To start the listing process, click on the button below
 
Add a business
 

Other Pages about Ashley Field Airport

Update a link
 
Copyright © AirNav, LLC. All rights reserved. Privacy Policy  Contact